Narsarsuaq, Greenland
Current Conditions -  °F | °C
As of 8:50 PM on Friday 24 Oct 2014 (Local Time) from BGBW Reporting Station
Scattered Clouds Scattered Clouds  
Wind Chill: 11°   Ceiling: Unl
Heat Index: 23°   Visibility: 6mi
Dew Point: -13°   Wind: 14mph
Humidity: 20%   Direction: 70°ENE
Pressure: 29.44"   Gusts: NA
Location:  61.17°N, 45.43°W
Report Text: BGBW 242250Z 07012KT 9999 FEW050 SCT120 M05/M25 Q0997
Loading
Personal Weather Stations






























Interactive Weather Map
Tropical Storm Tracking
New forecast layout! Learn more

10-Day Weather Forecast

Advertisements
Track Severe Weather on mobile